»·PEaware :: DAL2940 KLAX-KSLC

DAL2940 :: KLAX-KSLC

FLIGHT INFORMATION

Flight Status: Arrived
Operator:
Delta Air Lines
More flights by this operator :: More flights under this callsign
Pilot: Jake M. (20491)
Aircraft: AIRBUS A320
(A320)
More flights by this aircraft type
Origin: KLAX Los Angeles Intl
United States
Destination: KSLC Salt Lake City Intl
United States
More flights between these airports :: More routes between these airports
Route: OSHNN8 LAS Q70 BLIPP Q842 WINEN MLF QWENN5
File this flight plan on PilotEdge
Remarks: PBN / A1B1C1D1O1S1 DOF / 181204 REG / N320SB EET / KZLC0047 OPR / DAL PER / C RMK / TCAS SIMBRIEF
Altitude:
(Current/Filed)
37,000ft
Speed:
(Current/Filed)
455kts
Departed: 03-Dec-18 04:43 PM
Arrived: 03-Dec-18 06:06 PM
Distance/Time
Traveled:
512nm/1:23
Distance/Time
To Go:
Arrived

Flight Plot

Page will automatically refresh every two minutes.

Flight plan parsing failed; only flown route is shown


Map Options




Map Legend


Flown Route
Filed Route
Departure Airport
Arrival Airport
Navaid (VOR, NDB)
Fix

Horizontal Profiles

Position Reports

Time Latitude Longitude Heading Altitude Ground
Speed
03-Dec-18 16:15 33.946936 -118.404874 115 121ft 0kts
03-Dec-18 16:16 33.946936 -118.404874 115 121ft 0kts
03-Dec-18 16:18 33.946936 -118.404874 115 121ft 0kts
03-Dec-18 16:19 33.946936 -118.404874 115 121ft 0kts
03-Dec-18 16:20 33.946936 -118.404874 115 121ft 0kts
03-Dec-18 16:21 33.946936 -118.404874 115 121ft 0kts
03-Dec-18 16:22 33.946936 -118.404874 115 121ft 0kts
03-Dec-18 16:23 33.946936 -118.404874 115 121ft 0kts
03-Dec-18 16:24 33.946936 -118.404874 115 121ft 0kts
03-Dec-18 16:25 33.946936 -118.404874 115 121ft 0kts
03-Dec-18 16:26 33.946936 -118.404874 115 121ft 0kts
03-Dec-18 16:27 33.946936 -118.404874 115 121ft 0kts
03-Dec-18 16:28 33.946936 -118.404874 115 121ft 0kts
03-Dec-18 16:29 33.946936 -118.404874 115 121ft 0kts
03-Dec-18 16:30 33.946936 -118.404874 115 121ft 0kts
03-Dec-18 16:31 33.946936 -118.404874 115 121ft 0kts
03-Dec-18 16:32 33.946936 -118.404874 115 121ft 0kts
03-Dec-18 16:33 33.946936 -118.404874 115 121ft 0kts
03-Dec-18 16:34 33.947083 -118.405256 115 121ft 0kts
03-Dec-18 16:35 33.946873 -118.405772 6 121ft 2kts
03-Dec-18 16:36 33.946753 -118.405763 352 121ft 0kts
03-Dec-18 16:37 33.946756 -118.405764 352 121ft 0kts
03-Dec-18 16:38 33.946815 -118.405772 353 121ft 1kts
03-Dec-18 16:39 33.948754 -118.404886 84 121ft 14kts
03-Dec-18 16:39 33.949231 -118.400936 48 116ft 8kts
03-Dec-18 16:41 33.949353 -118.400817 30 116ft 0kts
03-Dec-18 16:41 33.949961 -118.400821 336 116ft 11kts
03-Dec-18 16:43 33.948209 -118.420601 262 288ft 163kts
03-Dec-18 16:43 33.943555 -118.469275 266 2883ft 190kts
03-Dec-18 16:44 33.939308 -118.546173 263 5125ft 263kts
03-Dec-18 16:45 33.920189 -118.629747 220 8357ft 278kts
03-Dec-18 16:47 33.828003 -118.626793 150 10860ft 332kts
03-Dec-18 16:47 33.760818 -118.571647 148 12104ft 358kts
03-Dec-18 16:48 33.687615 -118.489441 111 14313ft 381kts
03-Dec-18 16:49 33.651689 -118.367413 110 16373ft 397kts
03-Dec-18 16:50 33.644485 -118.235422 89 17003ft 400kts
03-Dec-18 16:51 33.700521 -118.128843 34 17231ft 397kts
03-Dec-18 16:52 33.790374 -118.048968 34 19011ft 410kts
03-Dec-18 16:53 33.882556 -117.966142 34 20679ft 422kts
03-Dec-18 16:54 33.977088 -117.880135 34 22215ft 432kts
03-Dec-18 16:55 34.072868 -117.792361 35 23632ft 442kts
03-Dec-18 16:56 34.154148 -117.681426 48 24829ft 457kts
03-Dec-18 16:57 34.235307 -117.560814 48 25969ft 468kts
03-Dec-18 16:58 34.320237 -117.440582 40 27009ft 475kts
03-Dec-18 16:59 34.415147 -117.328835 41 27972ft 485kts
03-Dec-18 17:00 34.511737 -117.214629 41 28837ft 493kts
03-Dec-18 17:01 34.610387 -117.097586 41 29764ft 497kts
03-Dec-18 17:02 34.709032 -116.980162 40 30872ft 497kts
03-Dec-18 17:03 34.807212 -116.862866 40 31983ft 496kts
03-Dec-18 17:04 34.905255 -116.745313 40 32984ft 495kts
03-Dec-18 17:05 34.999614 -116.622832 43 33921ft 496kts
03-Dec-18 17:06 35.092443 -116.500355 42 34839ft 495kts
03-Dec-18 17:07 35.183543 -116.379713 42 35650ft 494kts
03-Dec-18 17:08 35.275594 -116.257375 43 36353ft 494kts
03-Dec-18 17:09 35.368071 -116.134020 43 36976ft 494kts
03-Dec-18 17:10 35.460928 -116.009707 43 37225ft 493kts
03-Dec-18 17:11 35.552957 -115.886050 43 37280ft 494kts
03-Dec-18 17:12 35.644965 -115.761873 43 37279ft 494kts
03-Dec-18 17:13 35.736525 -115.635837 43 37280ft 493kts
03-Dec-18 17:14 35.827698 -115.510015 43 37248ft 494kts
03-Dec-18 17:15 35.918464 -115.384298 43 37265ft 493kts
03-Dec-18 17:16 36.007797 -115.260106 44 37273ft 493kts
03-Dec-18 17:17 36.100725 -115.137178 35 37245ft 487kts
03-Dec-18 17:18 36.200779 -115.029552 35 37252ft 487kts
03-Dec-18 17:19 36.302606 -114.919539 35 37280ft 487kts
03-Dec-18 17:20 36.404275 -114.809314 35 37283ft 488kts
03-Dec-18 17:21 36.506473 -114.698173 35 37292ft 488kts
03-Dec-18 17:22 36.608086 -114.587278 35 37292ft 487kts
03-Dec-18 17:23 36.710139 -114.476823 30 37313ft 484kts
03-Dec-18 17:24 36.821850 -114.387603 25 37314ft 480kts
03-Dec-18 17:25 36.933968 -114.299472 26 37304ft 478kts
03-Dec-18 17:26 37.045893 -114.211197 26 37290ft 477kts
03-Dec-18 17:27 37.157085 -114.123191 26 37295ft 477kts
03-Dec-18 17:28 37.269051 -114.034261 26 37303ft 478kts
03-Dec-18 17:29 37.380652 -113.945301 26 37316ft 478kts
03-Dec-18 17:30 37.491351 -113.856747 26 37238ft 478kts
03-Dec-18 17:31 37.603498 -113.766717 26 37233ft 478kts
03-Dec-18 17:32 37.715114 -113.676783 26 37233ft 478kts
03-Dec-18 17:33 37.826779 -113.586483 26 37235ft 478kts
03-Dec-18 17:34 37.937419 -113.494479 32 37230ft 483kts
03-Dec-18 17:35 38.033728 -113.386245 35 37295ft 485kts
03-Dec-18 17:36 38.131920 -113.274622 36 37272ft 485kts
03-Dec-18 17:37 38.231722 -113.160714 36 37266ft 484kts
03-Dec-18 17:38 38.331792 -113.046057 36 37272ft 484kts
03-Dec-18 17:39 38.445626 -112.966514 16 37289ft 468kts
03-Dec-18 17:40 38.565332 -112.902681 15 37287ft 467kts
03-Dec-18 17:41 38.684455 -112.839110 15 37283ft 467kts
03-Dec-18 17:42 38.803893 -112.775116 15 37282ft 466kts
03-Dec-18 17:43 38.923619 -112.710731 15 37241ft 466kts
03-Dec-18 17:44 39.042223 -112.646713 15 35494ft 467kts
03-Dec-18 17:45 39.161364 -112.582163 16 32712ft 476kts
03-Dec-18 17:46 39.283838 -112.515568 16 29683ft 483kts
03-Dec-18 17:47 39.407131 -112.445503 18 26882ft 478kts
03-Dec-18 17:48 39.525706 -112.377299 19 24585ft 461kts
03-Dec-18 17:49 39.637381 -112.312862 20 22286ft 444kts
03-Dec-18 17:50 39.747675 -112.249003 20 19933ft 427kts
03-Dec-18 17:51 39.853418 -112.187566 21 17658ft 407kts
03-Dec-18 17:52 39.952837 -112.130538 22 15879ft 376kts
03-Dec-18 17:53 40.045419 -112.079405 22 14065ft 355kts
03-Dec-18 17:54 40.132381 -112.025335 25 13119ft 353kts
03-Dec-18 17:55 40.219156 -111.970063 25 11907ft 339kts
03-Dec-18 17:56 40.308473 -111.934889 3 11008ft 330kts
03-Dec-18 17:57 40.389281 -111.928448 357 10929ft 256kts
03-Dec-18 17:58 40.455295 -111.936184 354 10458ft 224kts
03-Dec-18 17:59 40.518732 -111.943428 353 9144ft 234kts
03-Dec-18 18:00 40.581523 -111.950693 353 8000ft 224kts
03-Dec-18 18:01 40.642896 -111.957832 353 6812ft 217kts
03-Dec-18 18:02 40.697639 -111.964187 353 5786ft 170kts
03-Dec-18 18:03 40.740040 -111.969132 352 4921ft 149kts
03-Dec-18 18:04 40.780788 -111.973802 353 4230ft 134kts
03-Dec-18 18:05 40.791907 -111.975692 323 4225ft 6kts
03-Dec-18 18:06 40.791982 -111.979284 260 4222ft 14kts
03-Dec-18 18:07 40.791005 -111.986186 182 4225ft 14kts
03-Dec-18 18:08 40.787494 -111.986149 139 4225ft 10kts
03-Dec-18 18:09 40.787268 -111.984918 82 4225ft 0kts
03-Dec-18 18:10 40.787268 -111.984918 82 4225ft 0kts
03-Dec-18 18:11 40.787268 -111.984918 82 4225ft 0kts

Navigation Log

Ident Type
Flight plan parsing failed, navigation log unavailable